createdAt,value
2024-03-23T00:00:23.465Z,24.53
2024-03-23T00:01:23.433Z,24.51
2024-03-23T00:02:23.516Z,24.54
2024-03-23T00:03:23.524Z,24.56
2024-03-23T00:04:23.572Z,24.53
2024-03-23T00:05:23.625Z,24.50
2024-03-23T00:06:23.683Z,24.51
2024-03-23T00:07:23.725Z,24.51
2024-03-23T00:08:23.779Z,24.54
2024-03-23T00:09:23.896Z,24.51
2024-03-23T00:10:23.866Z,24.53
2024-03-23T00:11:23.910Z,24.53
2024-03-23T00:12:23.999Z,24.50
2024-03-23T00:13:24.009Z,24.51
2024-03-23T00:14:24.055Z,24.53
2024-03-23T00:15:24.122Z,24.50
2024-03-23T00:16:24.150Z,24.51
2024-03-23T00:17:24.195Z,24.50
2024-03-23T00:18:24.269Z,24.48
2024-03-23T00:19:24.325Z,24.50
2024-03-23T00:20:24.350Z,24.48
2024-03-23T00:21:24.439Z,24.48
2024-03-23T00:22:24.451Z,24.48
2024-03-23T00:23:24.525Z,24.46
2024-03-23T00:24:24.574Z,24.48
2024-03-23T00:25:24.622Z,24.47
2024-03-23T00:26:24.645Z,24.47
2024-03-23T00:27:24.738Z,24.50
2024-03-23T00:28:24.750Z,24.47
2024-03-23T00:29:24.823Z,24.46
2024-03-23T00:30:24.894Z,24.47
2024-03-23T00:31:24.921Z,24.44
2024-03-23T00:32:24.973Z,24.46
2024-03-23T00:33:25.038Z,24.48
2024-03-23T00:34:25.088Z,24.46
2024-03-23T00:35:25.127Z,24.46
2024-03-23T00:36:25.205Z,24.48
2024-03-23T00:37:25.237Z,24.47
2024-03-23T00:38:25.349Z,24.47
2024-03-23T00:39:25.367Z,24.47
2024-03-23T00:40:25.425Z,24.47
2024-03-23T00:41:25.458Z,24.46
2024-03-23T00:42:25.525Z,24.46
2024-03-23T00:43:25.565Z,24.44
2024-03-23T00:44:25.624Z,24.46
2024-03-23T00:45:25.660Z,24.47
2024-03-23T00:46:25.756Z,24.46
2024-03-23T00:47:25.795Z,24.43
2024-03-23T00:48:25.816Z,24.47
2024-03-23T00:49:25.879Z,24.46
2024-03-23T00:50:25.915Z,24.44
2024-03-23T00:51:25.963Z,24.44
2024-03-23T00:52:26.056Z,24.47
2024-03-23T00:53:26.063Z,24.43
2024-03-23T00:54:26.116Z,24.46
2024-03-23T00:55:26.163Z,24.46
2024-03-23T00:56:26.226Z,24.44
2024-03-23T00:57:26.285Z,24.41
2024-03-23T00:58:26.318Z,24.43
2024-03-23T00:59:26.377Z,24.43
2024-03-23T01:00:26.436Z,24.43
2024-03-23T01:01:26.502Z,24.41
2024-03-23T01:02:26.541Z,24.43
2024-03-23T01:03:26.611Z,24.43
2024-03-23T01:04:26.647Z,24.43
2024-03-23T01:05:26.692Z,24.43
2024-03-23T01:06:26.743Z,24.40
2024-03-23T01:07:26.829Z,24.43
2024-03-23T01:08:26.844Z,24.43
2024-03-23T01:09:26.906Z,24.43
2024-03-23T01:10:26.944Z,24.41
2024-03-23T01:11:27.005Z,24.43
2024-03-23T01:12:27.060Z,24.43
2024-03-23T01:13:27.106Z,24.40
2024-03-23T01:14:27.169Z,24.41
2024-03-23T01:15:27.246Z,24.37
2024-03-23T01:16:27.299Z,24.38
2024-03-23T01:17:27.384Z,24.40
2024-03-23T01:18:27.392Z,24.40
2024-03-23T01:19:27.466Z,24.38
2024-03-23T01:20:27.558Z,24.40
2024-03-23T01:21:27.599Z,24.40
2024-03-23T01:22:27.671Z,24.40
2024-03-23T01:23:27.726Z,24.41
2024-03-23T01:24:27.768Z,24.40
2024-03-23T01:25:27.830Z,24.38
2024-03-23T01:26:27.890Z,24.38
2024-03-23T01:27:27.947Z,24.38
2024-03-23T01:28:28.005Z,24.38
2024-03-23T01:29:28.080Z,24.37
2024-03-23T01:30:28.150Z,24.36
2024-03-23T01:31:28.170Z,24.40
2024-03-23T01:32:28.258Z,24.38
2024-03-23T01:33:28.289Z,24.40
2024-03-23T01:34:28.358Z,24.40
2024-03-23T01:35:28.410Z,24.38
2024-03-23T01:36:28.477Z,24.40
2024-03-23T01:37:28.522Z,24.36
2024-03-23T01:38:28.583Z,24.36
2024-03-23T01:39:28.656Z,24.36
2024-03-23T01:40:28.784Z,24.34
2024-03-23T01:41:28.759Z,24.37
2024-03-23T01:42:28.849Z,24.37
2024-03-23T01:43:28.903Z,24.36
2024-03-23T01:44:28.958Z,24.36
2024-03-23T01:45:29.031Z,24.36
2024-03-23T01:46:29.096Z,24.37
2024-03-23T01:47:29.143Z,24.34
2024-03-23T01:48:29.182Z,24.37
2024-03-23T01:49:29.261Z,24.34
2024-03-23T01:50:29.319Z,24.33
2024-03-23T01:51:29.395Z,24.33
2024-03-23T01:52:29.454Z,24.33
2024-03-23T01:53:29.516Z,24.33
2024-03-23T01:54:29.580Z,24.33
2024-03-23T01:55:29.643Z,24.30
2024-03-23T01:56:29.710Z,24.33
2024-03-23T01:57:29.761Z,24.33
2024-03-23T01:58:29.844Z,24.30
2024-03-23T01:59:29.898Z,24.30
2024-03-23T02:00:29.952Z,24.31
2024-03-23T02:01:30.019Z,24.31
2024-03-23T02:02:30.075Z,24.28
2024-03-23T02:03:30.144Z,24.27
2024-03-23T02:04:30.226Z,24.27
2024-03-23T02:05:30.267Z,24.27
2024-03-23T02:06:30.361Z,24.28
2024-03-23T02:07:30.412Z,24.26
2024-03-23T02:08:30.466Z,24.27
2024-03-23T02:09:30.534Z,24.27
2024-03-23T02:10:30.619Z,24.26
2024-03-23T02:11:30.683Z,24.27
2024-03-23T02:12:30.736Z,24.28
2024-03-23T02:13:30.829Z,24.28
2024-03-23T02:14:30.867Z,24.27
2024-03-23T02:15:30.970Z,24.24
2024-03-23T02:16:31.043Z,24.26
2024-03-23T02:17:31.076Z,24.24
2024-03-23T02:18:31.145Z,24.24
2024-03-23T02:19:31.229Z,24.26
2024-03-23T02:20:31.305Z,24.23
2024-03-23T02:21:31.356Z,24.24
2024-03-23T02:22:31.440Z,24.24
2024-03-23T02:23:31.522Z,24.23
2024-03-23T02:24:31.566Z,24.21
2024-03-23T02:25:31.648Z,24.21
2024-03-23T02:26:31.741Z,24.21
2024-03-23T02:27:31.771Z,24.20
2024-03-23T02:28:31.873Z,24.23
2024-03-23T02:29:31.935Z,24.20
2024-03-23T02:30:31.982Z,24.23
2024-03-23T02:31:32.089Z,24.21
2024-03-23T02:32:32.130Z,24.21
2024-03-23T02:33:32.219Z,24.20
2024-03-23T02:34:32.285Z,24.21
2024-03-23T02:35:32.333Z,24.20
2024-03-23T02:36:32.428Z,24.20
2024-03-23T02:37:32.482Z,24.21
2024-03-23T02:38:32.576Z,24.20
2024-03-23T02:39:32.653Z,24.21
2024-03-23T02:40:32.713Z,24.21
2024-03-23T02:41:32.767Z,24.21
2024-03-23T02:42:32.844Z,24.20
2024-03-23T02:43:32.939Z,24.20
2024-03-23T02:44:32.993Z,24.20
2024-03-23T02:45:33.040Z,24.20
2024-03-23T02:46:33.102Z,24.20
2024-03-23T02:47:33.169Z,24.23
2024-03-23T02:48:33.250Z,24.21
2024-03-23T02:49:33.322Z,24.19
2024-03-23T02:50:33.349Z,24.19
2024-03-23T02:51:33.430Z,24.19
2024-03-23T02:52:33.510Z,24.20
2024-03-23T02:53:33.544Z,24.20
2024-03-23T02:54:33.617Z,24.17
2024-03-23T02:55:33.680Z,24.19
2024-03-23T02:56:33.749Z,24.17
2024-03-23T02:57:33.799Z,24.20
2024-03-23T02:58:33.876Z,24.20
2024-03-23T02:59:33.940Z,24.20
2024-03-23T03:00:34.028Z,24.19
2024-03-23T03:01:34.085Z,24.20
2024-03-23T03:02:34.148Z,24.19
2024-03-23T03:03:34.219Z,24.16
2024-03-23T03:04:34.301Z,24.19
2024-03-23T03:05:34.358Z,24.17
2024-03-23T03:06:34.430Z,24.19
2024-03-23T03:07:34.501Z,24.17
2024-03-23T03:08:34.568Z,24.19
2024-03-23T03:09:34.644Z,24.19
2024-03-23T03:10:34.749Z,24.17
2024-03-23T03:11:34.769Z,24.16
2024-03-23T03:12:34.846Z,24.19
2024-03-23T03:13:34.918Z,24.17
2024-03-23T03:14:34.988Z,24.17
2024-03-23T03:15:35.049Z,24.16
2024-03-23T03:16:35.101Z,24.17
2024-03-23T03:17:35.171Z,24.16
2024-03-23T03:18:35.232Z,24.16
2024-03-23T03:19:35.320Z,24.17
2024-03-23T03:20:35.370Z,24.14
2024-03-23T03:21:35.474Z,24.17
2024-03-23T03:22:35.521Z,24.17
2024-03-23T03:23:35.590Z,24.16
2024-03-23T03:24:35.699Z,24.16
2024-03-23T03:25:35.751Z,24.17
2024-03-23T03:26:35.814Z,24.14
2024-03-23T03:27:35.883Z,24.14
2024-03-23T03:28:35.941Z,24.14
2024-03-23T03:29:36.012Z,24.13
2024-03-23T03:30:36.080Z,24.14
2024-03-23T03:31:36.147Z,24.14
2024-03-23T03:32:36.220Z,24.14
2024-03-23T03:33:36.288Z,24.14
2024-03-23T03:34:36.377Z,24.13
2024-03-23T03:35:36.425Z,24.14
2024-03-23T03:36:36.498Z,24.13
2024-03-23T03:37:36.593Z,24.13
2024-03-23T03:38:36.639Z,24.12
2024-03-23T03:39:36.734Z,24.12
2024-03-23T03:40:36.813Z,24.12
2024-03-23T03:41:36.870Z,24.14
2024-03-23T03:42:36.918Z,24.12
2024-03-23T03:43:36.990Z,24.12
2024-03-23T03:44:37.089Z,24.12
2024-03-23T03:45:37.143Z,24.13
2024-03-23T03:46:37.228Z,24.13
2024-03-23T03:47:37.292Z,24.10
2024-03-23T03:48:37.376Z,24.10
2024-03-23T03:49:37.430Z,24.13
2024-03-23T03:50:37.517Z,24.10
2024-03-23T03:51:37.571Z,24.12
2024-03-23T03:52:37.643Z,24.10
2024-03-23T03:53:37.732Z,24.10
2024-03-23T03:54:37.810Z,24.12
2024-03-23T03:55:37.862Z,24.12
2024-03-23T03:56:37.921Z,24.10
2024-03-23T03:57:37.973Z,24.12
2024-03-23T03:58:38.030Z,24.12
2024-03-23T03:59:38.106Z,24.10
2024-03-23T04:00:38.168Z,24.12
2024-03-23T04:01:38.236Z,24.09
2024-03-23T04:02:38.305Z,24.10
2024-03-23T04:03:38.367Z,24.09
2024-03-23T04:04:38.419Z,24.12
2024-03-23T04:05:38.474Z,24.10
2024-03-23T04:06:38.531Z,24.10
2024-03-23T04:07:38.582Z,24.12
2024-03-23T04:08:38.631Z,24.10
2024-03-23T04:09:38.692Z,24.10
2024-03-23T04:10:38.788Z,24.07
2024-03-23T04:11:38.788Z,24.07
2024-03-23T04:12:38.862Z,24.09
2024-03-23T04:13:38.912Z,24.10
2024-03-23T04:14:38.990Z,24.09
2024-03-23T04:15:39.070Z,24.07
2024-03-23T04:16:39.078Z,24.07
2024-03-23T04:17:39.150Z,24.09
2024-03-23T04:18:39.212Z,24.09
2024-03-23T04:19:39.284Z,24.07
2024-03-23T04:20:39.310Z,24.06
2024-03-23T04:21:39.348Z,24.09
2024-03-23T04:22:39.416Z,24.10
2024-03-23T04:23:39.471Z,24.09
2024-03-23T04:24:46.648Z,24.04
2024-03-23T04:25:46.629Z,24.06
2024-03-23T04:26:46.633Z,24.09
2024-03-23T04:27:46.653Z,24.07
2024-03-23T04:28:46.655Z,24.09
2024-03-23T04:29:46.645Z,24.06
2024-03-23T04:30:46.663Z,24.07
2024-03-23T04:31:53.840Z,24.04
2024-03-23T04:32:53.838Z,24.06
2024-03-23T04:33:53.842Z,24.04
2024-03-23T04:34:53.869Z,24.04
2024-03-23T04:35:53.841Z,24.06
2024-03-23T04:36:53.843Z,24.06
2024-03-23T04:37:53.866Z,24.07
2024-03-23T04:38:53.851Z,24.06
2024-03-23T04:39:53.976Z,24.04
2024-03-23T04:40:53.859Z,24.03
2024-03-23T04:41:53.868Z,24.06
2024-03-23T04:42:53.848Z,24.07
2024-03-23T04:43:53.961Z,24.06
2024-03-23T04:44:53.953Z,24.04
2024-03-23T04:45:53.863Z,24.04
2024-03-23T04:46:53.875Z,24.06
2024-03-23T04:47:53.852Z,24.06
2024-03-23T04:48:53.898Z,24.04
2024-03-23T04:49:53.864Z,24.06
2024-03-23T04:50:53.883Z,24.04
2024-03-23T04:51:53.858Z,24.03
2024-03-23T04:52:53.875Z,24.03
2024-03-23T04:53:53.912Z,24.04
2024-03-23T04:54:53.959Z,24.06
2024-03-23T04:55:54.003Z,24.03
2024-03-23T04:56:54.041Z,24.04
2024-03-23T04:57:54.042Z,24.02
2024-03-23T04:58:54.093Z,24.06
2024-03-23T04:59:54.148Z,24.04
2024-03-23T05:00:54.161Z,24.02
2024-03-23T05:01:54.194Z,24.02
2024-03-23T05:02:54.246Z,24.04
2024-03-23T05:03:54.235Z,24.03
2024-03-23T05:04:54.288Z,24.04
2024-03-23T05:05:54.310Z,24.02
2024-03-23T05:06:54.359Z,24.03
2024-03-23T05:07:54.404Z,24.06
2024-03-23T05:08:54.454Z,24.04
2024-03-23T05:09:54.512Z,24.06
2024-03-23T05:10:54.560Z,24.04
2024-03-23T05:11:54.613Z,24.03
2024-03-23T05:12:54.656Z,24.04
2024-03-23T05:13:54.702Z,24.03
2024-03-23T05:14:54.713Z,24.06
2024-03-23T05:15:54.756Z,24.04
2024-03-23T05:16:54.868Z,24.07
2024-03-23T05:17:54.886Z,24.06
2024-03-23T05:18:54.959Z,24.04
2024-03-23T05:19:55.850Z,24.03
2024-03-23T05:20:55.104Z,24.06
2024-03-23T05:21:55.162Z,24.07
2024-03-23T05:22:55.233Z,24.06
2024-03-23T05:23:55.295Z,24.07
2024-03-23T05:24:55.364Z,24.06
2024-03-23T05:25:55.409Z,24.06
2024-03-23T05:26:55.429Z,24.09
2024-03-23T05:27:55.478Z,24.07
2024-03-23T05:28:55.540Z,24.07
2024-03-23T05:29:55.589Z,24.10
2024-03-23T05:30:55.649Z,24.10
2024-03-23T05:31:55.708Z,24.12
2024-03-23T05:32:55.811Z,24.14
2024-03-23T05:33:55.899Z,24.19
2024-03-23T05:34:55.874Z,24.31
2024-03-23T05:35:55.919Z,24.40
2024-03-23T05:36:55.925Z,24.47
2024-03-23T05:37:55.982Z,24.51
2024-03-23T05:38:56.016Z,24.56
2024-03-23T05:39:56.045Z,24.53
2024-03-23T05:40:56.077Z,24.60
2024-03-23T05:41:56.119Z,24.67
2024-03-23T05:42:56.162Z,24.70
2024-03-23T05:43:56.236Z,24.77
2024-03-23T05:44:56.249Z,24.81
2024-03-23T05:45:56.281Z,24.85
2024-03-23T05:46:56.326Z,24.88
2024-03-23T05:47:56.359Z,24.91
2024-03-23T05:48:56.394Z,24.95
2024-03-23T05:49:56.564Z,24.94
2024-03-23T05:50:56.463Z,24.97
2024-03-23T05:51:56.506Z,25.04
2024-03-23T05:52:56.522Z,25.07
2024-03-23T05:53:56.548Z,25.10
2024-03-23T05:54:56.595Z,25.12
2024-03-23T05:55:56.606Z,25.22
2024-03-23T05:56:56.618Z,25.28
2024-03-23T05:57:56.641Z,25.38
2024-03-23T05:58:56.665Z,25.45
2024-03-23T05:59:56.686Z,25.76
2024-03-23T06:00:56.672Z,26.17
2024-03-23T06:01:56.688Z,26.30
2024-03-23T06:02:56.736Z,26.34
2024-03-23T06:03:56.808Z,26.43
2024-03-23T06:04:56.834Z,26.51
2024-03-23T06:05:56.860Z,26.57
2024-03-23T06:06:56.868Z,26.67
2024-03-23T06:07:59.603Z,26.68
2024-03-23T06:08:56.895Z,26.77
2024-03-23T06:09:56.901Z,26.98
2024-03-23T06:10:56.914Z,27.98
2024-03-23T06:11:56.922Z,29.88
2024-03-23T06:12:56.888Z,32.07
2024-03-23T06:13:56.912Z,33.87
2024-03-23T06:14:56.910Z,35.46
2024-03-23T06:15:56.894Z,36.77
2024-03-23T06:16:56.882Z,38.00
2024-03-23T06:17:56.899Z,39.08
2024-03-23T06:18:56.899Z,39.91
2024-03-23T06:19:56.912Z,40.80
2024-03-23T06:20:56.906Z,41.60
2024-03-23T06:21:56.898Z,42.27
2024-03-23T06:22:56.905Z,42.86
2024-03-23T06:23:57.003Z,43.40
2024-03-23T06:24:56.909Z,43.91
2024-03-23T06:25:56.930Z,44.34
2024-03-23T06:26:56.929Z,44.59
2024-03-23T06:27:56.926Z,43.68
2024-03-23T06:28:56.947Z,41.65
2024-03-23T06:29:56.940Z,39.67
2024-03-23T06:30:56.920Z,38.05
2024-03-23T06:31:56.939Z,36.74
2024-03-23T06:32:56.932Z,35.55
2024-03-23T06:33:56.935Z,34.61
2024-03-23T06:34:56.936Z,33.83
2024-03-23T06:35:57.007Z,33.16
2024-03-23T06:36:56.937Z,32.59
2024-03-23T06:37:56.988Z,32.04
2024-03-23T06:38:57.022Z,31.61
2024-03-23T06:39:57.079Z,31.18
2024-03-23T06:40:57.119Z,30.86
2024-03-23T06:41:57.165Z,30.55
2024-03-23T06:42:57.165Z,30.27
2024-03-23T06:43:57.523Z,30.05
2024-03-23T06:44:57.195Z,29.86
2024-03-23T06:45:57.202Z,29.69
2024-03-23T06:46:57.233Z,29.54
2024-03-23T06:47:57.283Z,29.40
2024-03-23T06:48:57.303Z,29.30
2024-03-23T06:49:57.368Z,29.21
2024-03-23T06:50:57.388Z,29.18
2024-03-23T06:51:57.447Z,29.10
2024-03-23T06:52:57.487Z,29.06
2024-03-23T06:53:57.561Z,29.03
2024-03-23T06:54:57.622Z,28.96
2024-03-23T06:55:57.638Z,28.93
2024-03-23T06:56:57.700Z,28.89
2024-03-23T06:57:57.772Z,28.84
2024-03-23T06:58:57.843Z,28.81
2024-03-23T06:59:57.903Z,28.81
2024-03-23T07:00:57.942Z,28.74
2024-03-23T07:01:58.015Z,28.73
2024-03-23T07:02:58.083Z,28.69
2024-03-23T07:03:58.184Z,28.64
2024-03-23T07:04:58.220Z,28.57
2024-03-23T07:05:58.286Z,28.50
2024-03-23T07:06:58.316Z,28.52
2024-03-23T07:07:58.380Z,28.46
2024-03-23T07:08:58.407Z,28.44
2024-03-23T07:09:58.433Z,28.40
2024-03-23T07:10:58.472Z,28.38
2024-03-23T07:11:58.486Z,28.33
2024-03-23T07:12:58.490Z,28.32
2024-03-23T07:13:58.485Z,28.29
2024-03-23T07:14:58.505Z,28.27
2024-03-23T07:15:58.513Z,28.27
2024-03-23T07:16:58.528Z,28.24
2024-03-23T07:17:58.517Z,28.22
2024-03-23T07:18:58.518Z,28.19
2024-03-23T07:19:58.535Z,28.19
2024-03-23T07:20:58.525Z,28.18
2024-03-23T07:21:58.531Z,28.13
2024-03-23T07:22:58.550Z,28.12
2024-03-23T07:23:58.564Z,28.10
2024-03-23T07:24:58.533Z,28.09
2024-03-23T07:25:58.559Z,28.09
2024-03-23T07:26:58.565Z,28.05
2024-03-23T07:28:00.510Z,28.03
2024-03-23T07:28:58.612Z,28.03
2024-03-23T07:29:58.573Z,28.02
2024-03-23T07:30:58.569Z,28.00
2024-03-23T07:31:58.593Z,28.03
2024-03-23T07:32:58.576Z,28.02
2024-03-23T07:33:58.579Z,28.00
2024-03-23T07:34:58.578Z,27.99
2024-03-23T07:35:58.579Z,27.99
2024-03-23T07:36:58.579Z,27.98
2024-03-23T07:37:58.580Z,27.95
2024-03-23T07:39:07.605Z,27.96
2024-03-23T07:39:59.600Z,27.92
2024-03-23T07:40:58.585Z,27.93
2024-03-23T07:41:58.604Z,27.92
2024-03-23T07:42:58.593Z,27.91
2024-03-23T07:43:58.628Z,27.89
2024-03-23T07:44:58.622Z,27.91
2024-03-23T07:45:58.600Z,27.88
2024-03-23T07:46:58.603Z,27.86
2024-03-23T07:47:58.595Z,27.85
2024-03-23T07:48:58.629Z,27.86
2024-03-23T07:49:58.609Z,27.84
2024-03-23T07:50:58.599Z,27.79
2024-03-23T07:51:58.623Z,27.81
2024-03-23T07:52:58.613Z,27.81
2024-03-23T07:53:58.618Z,27.81
2024-03-23T07:54:58.618Z,27.79
2024-03-23T07:55:58.631Z,27.79
2024-03-23T07:56:58.613Z,27.81
2024-03-23T07:57:58.618Z,27.79
2024-03-23T07:58:58.621Z,27.76
2024-03-23T07:59:58.623Z,27.78
2024-03-23T08:00:58.644Z,27.76
2024-03-23T08:02:00.420Z,27.75
2024-03-23T08:02:58.625Z,27.72
2024-03-23T08:03:58.654Z,27.75
2024-03-23T08:04:58.662Z,27.72
2024-03-23T08:05:58.653Z,27.73
2024-03-23T08:06:58.639Z,27.72
2024-03-23T08:07:58.645Z,27.71
2024-03-23T08:08:58.638Z,27.72
2024-03-23T08:09:58.662Z,27.72
2024-03-23T08:10:58.647Z,27.71
2024-03-23T08:11:58.639Z,27.71
2024-03-23T08:12:58.644Z,27.71
2024-03-23T08:13:58.626Z,27.68
2024-03-23T08:14:58.639Z,27.66
2024-03-23T08:15:58.627Z,27.69
2024-03-23T08:16:58.630Z,27.69
2024-03-23T08:17:58.636Z,27.66
2024-03-23T08:18:58.632Z,27.66
2024-03-23T08:19:58.637Z,27.65
2024-03-23T08:20:58.650Z,27.65
2024-03-23T08:21:58.638Z,27.66
2024-03-23T08:22:58.638Z,27.64
2024-03-23T08:23:58.641Z,27.64
2024-03-23T08:24:58.664Z,27.59
2024-03-23T08:25:58.645Z,27.61
2024-03-23T08:26:58.662Z,27.59
2024-03-23T08:27:58.648Z,27.59
2024-03-23T08:28:58.674Z,27.56
2024-03-23T08:29:58.707Z,27.55
2024-03-23T08:30:58.726Z,27.55
2024-03-23T08:31:58.756Z,27.54
2024-03-23T08:32:58.779Z,27.56
2024-03-23T08:33:58.803Z,27.54
2024-03-23T08:34:58.864Z,27.51
2024-03-23T08:35:58.876Z,27.48
2024-03-23T08:36:58.905Z,27.46
2024-03-23T08:37:58.950Z,27.46
2024-03-23T08:38:58.982Z,27.45
2024-03-23T08:39:59.012Z,27.42
2024-03-23T08:40:59.091Z,27.42
2024-03-23T08:41:59.089Z,27.41
2024-03-23T08:42:59.133Z,27.42
2024-03-23T08:43:59.175Z,27.40
2024-03-23T08:44:59.249Z,27.37
2024-03-23T08:45:59.265Z,27.37
2024-03-23T08:46:59.304Z,27.37
2024-03-23T08:47:59.352Z,27.35
2024-03-23T08:48:59.394Z,27.34
2024-03-23T08:49:59.443Z,27.35
2024-03-23T08:50:59.493Z,27.32
2024-03-23T08:51:59.543Z,27.31
2024-03-23T08:52:59.625Z,27.32
2024-03-23T08:53:59.726Z,27.28
2024-03-23T08:54:59.815Z,27.28
2024-03-23T08:55:59.766Z,27.28
2024-03-23T08:56:59.793Z,27.27
2024-03-23T08:57:59.826Z,27.25
2024-03-23T08:58:59.873Z,27.24
2024-03-23T08:59:59.939Z,27.25
2024-03-23T09:00:59.983Z,27.24
2024-03-23T09:02:00.079Z,27.24
2024-03-23T09:03:00.114Z,27.18
2024-03-23T09:04:00.173Z,27.18
2024-03-23T09:05:00.247Z,27.20
2024-03-23T09:06:00.276Z,27.15
2024-03-23T09:07:00.365Z,27.17
2024-03-23T09:08:00.408Z,27.17
2024-03-23T09:09:00.464Z,27.17
2024-03-23T09:10:00.515Z,27.12
2024-03-23T09:11:00.547Z,27.14
2024-03-23T09:12:00.605Z,27.12
2024-03-23T09:13:00.667Z,27.10
2024-03-23T09:14:00.719Z,27.10
2024-03-23T09:15:00.798Z,27.11
2024-03-23T09:16:00.862Z,27.10
2024-03-23T09:17:00.930Z,27.10
2024-03-23T09:18:00.971Z,27.10
2024-03-23T09:19:01.023Z,27.07
2024-03-23T09:20:01.134Z,27.04
2024-03-23T09:21:01.153Z,27.01
2024-03-23T09:22:01.269Z,27.00
2024-03-23T09:23:01.296Z,26.98
2024-03-23T09:24:01.360Z,26.97
2024-03-23T09:25:01.460Z,26.95
2024-03-23T09:26:01.514Z,26.94
2024-03-23T09:27:01.568Z,26.94
2024-03-23T09:28:01.664Z,26.94
2024-03-23T09:29:01.717Z,26.93
2024-03-23T09:30:01.798Z,26.91
2024-03-23T09:31:01.852Z,26.90
2024-03-23T09:32:01.935Z,26.87
2024-03-23T09:33:02.004Z,26.86
2024-03-23T09:34:02.096Z,26.86
2024-03-23T09:35:02.140Z,26.84
2024-03-23T09:36:02.189Z,26.81
2024-03-23T09:37:02.247Z,26.83
2024-03-23T09:38:02.271Z,26.80
2024-03-23T09:39:02.286Z,26.77
2024-03-23T09:40:02.327Z,26.74
2024-03-23T09:41:02.348Z,26.74
2024-03-23T09:42:02.342Z,26.71
2024-03-23T09:43:02.348Z,26.68
2024-03-23T09:44:02.343Z,26.68
2024-03-23T09:45:02.368Z,26.68
2024-03-23T09:46:02.357Z,26.67
2024-03-23T09:47:02.360Z,26.64
2024-03-23T09:48:02.376Z,26.66
2024-03-23T09:49:02.365Z,26.64
2024-03-23T09:50:02.390Z,26.63
2024-03-23T09:51:02.377Z,26.63
2024-03-23T09:52:02.397Z,26.63
2024-03-23T09:53:02.409Z,26.58
2024-03-23T09:54:02.409Z,26.58
2024-03-23T09:55:02.439Z,26.57
2024-03-23T09:56:02.427Z,26.57
2024-03-23T09:57:02.440Z,26.57
2024-03-23T09:58:02.441Z,26.56
2024-03-23T09:59:02.448Z,26.56
2024-03-23T10:00:02.475Z,26.56
2024-03-23T10:01:02.488Z,26.53
2024-03-23T10:02:02.490Z,26.54
2024-03-23T10:03:04.630Z,26.53
2024-03-23T10:04:02.515Z,26.53
2024-03-23T10:05:02.510Z,26.53
2024-03-23T10:06:02.548Z,26.51
2024-03-23T10:07:02.522Z,26.50
2024-03-23T10:08:02.522Z,26.48
2024-03-23T10:09:02.513Z,26.47
2024-03-23T10:10:02.524Z,26.47
2024-03-23T10:11:02.527Z,26.47
2024-03-23T10:12:02.528Z,26.46
2024-03-23T10:13:02.523Z,26.43
2024-03-23T10:14:02.859Z,26.43
2024-03-23T10:15:02.547Z,26.43
2024-03-23T10:16:02.547Z,26.40
2024-03-23T10:17:02.534Z,26.39
2024-03-23T10:18:02.540Z,26.39
2024-03-23T10:19:02.543Z,26.37
2024-03-23T10:20:02.555Z,26.37
2024-03-23T10:21:04.837Z,26.36
2024-03-23T10:22:02.547Z,26.36
2024-03-23T10:23:02.567Z,26.37
2024-03-23T10:24:02.554Z,26.36
2024-03-23T10:25:02.557Z,26.33
2024-03-23T10:26:02.563Z,26.33
2024-03-23T10:27:02.556Z,26.33
2024-03-23T10:28:02.578Z,26.30
2024-03-23T10:29:02.574Z,26.32
2024-03-23T10:30:02.570Z,26.29
2024-03-23T10:31:02.593Z,26.29
2024-03-23T10:32:02.618Z,26.27
2024-03-23T10:33:04.075Z,26.27
2024-03-23T10:34:02.819Z,26.23
2024-03-23T10:35:02.858Z,26.26
2024-03-23T10:36:02.863Z,26.22
2024-03-23T10:37:02.894Z,26.23
2024-03-23T10:38:02.970Z,26.20
2024-03-23T10:39:05.512Z,26.17
2024-03-23T10:40:03.959Z,26.17
2024-03-23T10:41:02.960Z,26.16
2024-03-23T10:42:02.958Z,26.15
2024-03-23T10:43:02.967Z,26.15
2024-03-23T10:44:02.945Z,26.16
2024-03-23T10:45:02.983Z,26.15
2024-03-23T10:46:02.962Z,26.13
2024-03-23T10:47:02.955Z,26.13
2024-03-23T10:48:02.953Z,26.09
2024-03-23T10:49:02.956Z,26.10
2024-03-23T10:50:02.961Z,26.09
2024-03-23T10:51:05.290Z,26.09
2024-03-23T10:52:02.971Z,26.09
2024-03-23T10:53:02.963Z,26.04
2024-03-23T10:54:02.966Z,26.04
2024-03-23T10:55:02.979Z,26.06
2024-03-23T10:56:02.974Z,26.06
2024-03-23T10:57:02.965Z,26.04
2024-03-23T10:58:02.980Z,26.04
2024-03-23T10:59:02.986Z,26.03
2024-03-23T11:00:03.015Z,26.02
2024-03-23T11:01:02.984Z,26.03
2024-03-23T11:02:02.986Z,26.02
2024-03-23T11:03:02.982Z,26.00
2024-03-23T11:04:02.984Z,26.00
2024-03-23T11:05:02.990Z,26.00
2024-03-23T11:06:02.984Z,25.99
2024-03-23T11:07:02.991Z,26.00
2024-03-23T11:08:02.993Z,26.00
2024-03-23T11:09:02.990Z,25.96
2024-03-23T11:10:03.004Z,25.97
2024-03-23T11:11:02.991Z,25.97
2024-03-23T11:12:02.992Z,25.95
2024-03-23T11:13:03.008Z,25.95
2024-03-23T11:14:03.004Z,25.93
2024-03-23T11:15:03.024Z,25.89
2024-03-23T11:16:03.012Z,25.89
2024-03-23T11:17:03.008Z,25.88
2024-03-23T11:18:03.009Z,25.89
2024-03-23T11:19:03.008Z,25.83
2024-03-23T11:20:03.014Z,25.82
2024-03-23T11:21:02.998Z,25.82
2024-03-23T11:22:03.128Z,25.79
2024-03-23T11:23:03.003Z,25.80
2024-03-23T11:24:03.006Z,25.76
2024-03-23T11:25:03.001Z,25.76
2024-03-23T11:26:03.016Z,25.73
2024-03-23T11:27:03.027Z,25.73
2024-03-23T11:28:03.032Z,25.70
2024-03-23T11:29:02.999Z,25.68
2024-03-23T11:30:03.041Z,25.66
2024-03-23T11:31:03.005Z,25.64
2024-03-23T11:32:03.019Z,25.62
2024-03-23T11:33:03.037Z,25.61
2024-03-23T11:34:03.107Z,25.59
2024-03-23T11:35:03.200Z,25.58
2024-03-23T11:36:03.269Z,25.58
2024-03-23T11:37:03.324Z,25.56
2024-03-23T11:38:03.373Z,25.52
2024-03-23T11:39:03.429Z,25.52
2024-03-23T11:40:03.518Z,25.50
2024-03-23T11:41:03.573Z,25.49
2024-03-23T11:42:03.642Z,25.50
2024-03-23T11:43:03.710Z,25.48
2024-03-23T11:44:03.770Z,25.48
2024-03-23T11:45:03.879Z,25.46
2024-03-23T11:46:03.914Z,25.45
2024-03-23T11:47:03.978Z,25.44
2024-03-23T11:48:04.060Z,25.42
2024-03-23T11:49:04.199Z,25.39
2024-03-23T11:50:04.226Z,25.41
2024-03-23T11:51:04.282Z,25.38
2024-03-23T11:52:04.331Z,25.38
2024-03-23T11:53:04.403Z,25.36
2024-03-23T11:54:04.442Z,25.34
2024-03-23T11:55:04.525Z,25.35
2024-03-23T11:56:04.553Z,25.29
2024-03-23T11:57:04.568Z,25.31
2024-03-23T11:58:04.589Z,25.29
2024-03-23T11:59:04.594Z,25.29
2024-03-23T12:00:04.614Z,25.25
2024-03-23T12:01:04.617Z,25.25
2024-03-23T12:02:04.642Z,25.24
2024-03-23T12:03:04.665Z,25.19
2024-03-23T12:04:04.657Z,25.17
2024-03-23T12:05:04.669Z,25.18
2024-03-23T12:06:04.672Z,25.17
2024-03-23T12:07:04.686Z,25.14
2024-03-23T12:08:04.688Z,25.15
2024-03-23T12:09:04.689Z,25.14
2024-03-23T12:10:04.692Z,25.12
2024-03-23T12:11:04.702Z,25.10
2024-03-23T12:12:04.710Z,25.10
2024-03-23T12:13:04.733Z,25.08
2024-03-23T12:14:04.767Z,25.08
2024-03-23T12:15:04.741Z,25.07
2024-03-23T12:16:04.747Z,25.01
2024-03-23T12:17:04.771Z,25.02
2024-03-23T12:18:04.814Z,25.01
2024-03-23T12:19:04.830Z,25.01
2024-03-23T12:20:04.833Z,25.01
2024-03-23T12:21:04.834Z,25.04
2024-03-23T12:22:04.855Z,25.02
2024-03-23T12:23:04.851Z,24.99
2024-03-23T12:24:04.873Z,24.98
2024-03-23T12:25:04.914Z,24.97
2024-03-23T12:26:04.928Z,24.95
2024-03-23T12:27:04.949Z,24.97
2024-03-23T12:28:04.968Z,24.98
2024-03-23T12:29:05.011Z,24.95
2024-03-23T12:30:05.014Z,24.95
2024-03-23T12:31:05.043Z,24.94
2024-03-23T12:32:06.045Z,24.91
2024-03-23T12:33:05.098Z,24.91
2024-03-23T12:34:05.122Z,24.90
2024-03-23T12:35:05.170Z,24.91
2024-03-23T12:36:05.185Z,24.88
2024-03-23T12:37:05.218Z,24.87
2024-03-23T12:38:05.249Z,24.85
2024-03-23T12:39:05.288Z,24.85
2024-03-23T12:40:05.317Z,24.85
2024-03-23T12:41:05.357Z,24.82
2024-03-23T12:42:05.390Z,24.82
2024-03-23T12:43:05.447Z,24.84
2024-03-23T12:44:05.454Z,24.82
2024-03-23T12:45:05.500Z,24.84
2024-03-23T12:46:05.517Z,24.82
2024-03-23T12:47:05.567Z,24.80
2024-03-23T12:48:05.588Z,24.81
2024-03-23T12:49:05.615Z,24.84
2024-03-23T12:50:05.677Z,24.84
2024-03-23T12:51:05.700Z,24.81
2024-03-23T12:52:05.744Z,24.80
2024-03-23T12:53:05.797Z,24.80